createdAt,value
2022-08-08T13:05:25.818Z,99751.77
2022-08-08T13:06:14.471Z,99746.58
2022-08-08T13:07:03.075Z,99749.13
2022-08-08T13:08:03.245Z,99748.59
2022-08-08T13:08:53.486Z,99748.77
2022-08-08T13:10:04.162Z,99749.66
2022-08-08T13:10:46.017Z,99750.88
2022-08-08T13:12:24.506Z,99749.63
2022-08-08T13:12:32.016Z,99750.73
2022-08-08T13:13:06.204Z,99751.00
2022-08-08T13:13:40.149Z,99751.80
2022-08-08T13:14:16.924Z,99754.60
2022-08-08T13:14:53.014Z,99752.63
2022-08-08T13:15:29.623Z,99752.20
2022-08-08T13:16:21.826Z,99754.75
2022-08-08T13:16:59.423Z,99751.98
2022-08-08T13:18:08.973Z,99749.41
2022-08-08T13:18:27.650Z,99753.10
2022-08-08T13:19:09.224Z,99750.75
2022-08-08T13:19:50.172Z,99753.20
2022-08-08T13:20:45.490Z,99752.63
2022-08-08T13:21:17.346Z,99755.34
2022-08-08T13:21:55.653Z,99752.14
2022-08-08T13:22:37.297Z,99751.98
2022-08-08T13:23:41.448Z,99751.34
2022-08-08T13:24:19.007Z,99751.81
2022-08-08T13:25:05.524Z,99751.23
2022-08-08T13:25:38.530Z,99751.48
2022-08-08T13:26:14.774Z,99752.30
2022-08-08T13:26:46.866Z,99750.12
2022-08-08T13:27:35.305Z,99751.77
2022-08-08T13:28:08.214Z,99751.48
2022-08-08T13:28:42.325Z,99750.33
2022-08-08T13:29:15.330Z,99748.88
2022-08-08T13:29:56.295Z,99752.94
2022-08-08T13:30:29.955Z,99750.71
2022-08-08T13:31:04.463Z,99750.34
2022-08-08T13:31:47.017Z,99751.52
2022-08-08T13:32:25.545Z,99749.55
2022-08-08T13:33:00.822Z,99750.08
2022-08-08T13:33:42.364Z,99751.43
2022-08-08T13:34:33.246Z,99747.23
2022-08-08T13:35:24.736Z,99746.27
2022-08-08T13:36:01.859Z,99746.20
2022-08-08T13:36:40.257Z,99746.79
2022-08-08T13:37:19.857Z,99742.52
2022-08-08T13:38:13.024Z,99746.46
2022-08-08T13:38:46.003Z,99744.12
2022-08-08T13:39:20.770Z,99744.56
2022-08-08T13:39:55.069Z,99746.11
2022-08-08T13:40:28.087Z,99743.72
2022-08-08T13:41:00.381Z,99743.95
2022-08-08T13:41:39.398Z,99740.67
2022-08-08T13:42:17.249Z,99741.64
2022-08-08T13:42:49.326Z,99739.73
2022-08-08T13:43:23.013Z,99738.60
2022-08-08T13:43:58.676Z,99739.99
2022-08-08T13:44:31.331Z,99741.40
2022-08-08T13:45:04.541Z,99742.04
2022-08-08T13:45:36.830Z,99739.45
2022-08-08T13:46:26.361Z,99737.30
2022-08-08T13:47:03.679Z,99740.72
2022-08-08T13:47:39.987Z,99743.91
2022-08-08T13:48:27.856Z,99738.81
2022-08-08T13:50:33.200Z,99739.93
2022-08-08T13:50:36.695Z,99740.36
2022-08-08T13:50:53.838Z,99738.64
2022-08-08T13:51:37.132Z,99735.30
2022-08-08T13:52:11.241Z,99734.36
2022-08-08T13:52:50.829Z,99733.20
2022-08-08T13:53:27.664Z,99735.81
2022-08-08T13:54:03.917Z,99735.77
2022-08-08T13:54:44.389Z,99735.73
2022-08-08T13:55:28.997Z,99733.55
2022-08-08T13:56:05.538Z,99738.30
2022-08-08T13:56:44.694Z,99740.54
2022-08-08T13:58:06.911Z,99740.63
2022-08-08T13:58:29.777Z,99743.04
2022-08-08T13:59:01.748Z,99742.23
2022-08-08T13:59:44.300Z,99738.77
2022-08-08T14:00:21.490Z,99740.10
2022-08-08T14:00:55.086Z,99739.57
2022-08-08T14:01:33.041Z,99736.56
2022-08-08T14:02:31.301Z,99734.48
2022-08-08T14:03:26.677Z,99738.07
2022-08-08T14:03:59.526Z,99739.82
2022-08-08T14:04:34.434Z,99738.84
2022-08-08T14:05:22.351Z,99740.46
2022-08-08T14:06:32.462Z,99739.45
2022-08-08T14:07:03.971Z,99736.27
2022-08-08T14:07:50.033Z,99737.05
2022-08-08T14:08:29.778Z,99739.54
2022-08-08T14:09:24.358Z,99738.14
2022-08-08T14:10:17.456Z,99738.02
2022-08-08T14:11:04.472Z,99739.58
2022-08-08T14:11:36.430Z,99737.06
2022-08-08T14:12:08.424Z,99736.59
2022-08-08T14:12:43.811Z,99734.34
2022-08-08T14:13:30.686Z,99738.47
2022-08-08T14:14:09.021Z,99730.41
2022-08-08T14:14:43.897Z,99729.88
2022-08-08T14:15:31.336Z,99732.45
2022-08-08T14:16:16.659Z,99736.80
2022-08-08T14:16:52.532Z,99733.15
2022-08-08T14:17:57.394Z,99732.48
2022-08-08T14:18:36.019Z,99734.11
2022-08-08T14:19:22.421Z,99732.20
2022-08-08T14:20:15.647Z,99734.33
2022-08-08T14:21:12.629Z,99733.69
2022-08-08T14:21:52.132Z,99730.97
2022-08-08T14:22:27.128Z,99727.70
2022-08-08T14:23:21.482Z,99728.61
2022-08-08T14:24:04.060Z,99730.17
2022-08-08T14:24:40.367Z,99726.48
2022-08-08T14:25:18.000Z,99728.75
2022-08-08T14:26:00.665Z,99731.55
2022-08-08T14:26:46.387Z,99730.75
2022-08-08T14:27:34.216Z,99730.75
2022-08-08T14:28:09.429Z,99729.27
2022-08-08T14:28:54.999Z,99726.96
2022-08-08T14:29:30.379Z,99730.70
2022-08-08T14:30:17.885Z,99729.48
2022-08-08T14:30:54.949Z,99728.98
2022-08-08T14:32:05.989Z,99733.56
2022-08-08T14:32:29.208Z,99729.29
2022-08-08T14:33:12.746Z,99729.42
2022-08-08T14:33:55.366Z,99734.23
2022-08-08T14:34:31.605Z,99732.15
2022-08-08T14:35:07.360Z,99735.84
2022-08-08T14:35:41.343Z,99731.83
2022-08-08T14:36:15.046Z,99732.31
2022-08-08T14:36:51.837Z,99733.33
2022-08-08T14:37:27.930Z,99731.80
2022-08-08T14:38:09.540Z,99731.75
2022-08-08T14:38:52.011Z,99731.98
2022-08-08T14:39:48.276Z,99732.14
2022-08-08T14:40:24.021Z,99730.27
2022-08-08T14:40:59.092Z,99730.87
2022-08-08T14:41:45.123Z,99731.99
2022-08-08T14:42:26.734Z,99728.20
2022-08-08T14:43:01.402Z,99729.75
2022-08-08T14:44:09.867Z,99728.11
2022-08-08T14:44:39.539Z,99728.55
2022-08-08T14:45:13.675Z,99726.95
2022-08-08T14:46:02.103Z,99728.63
2022-08-08T14:46:35.794Z,99725.16
2022-08-08T14:47:17.186Z,99728.16
2022-08-08T14:48:02.384Z,99726.71
2022-08-08T14:48:57.398Z,99727.20
2022-08-08T14:49:37.961Z,99728.05
2022-08-08T14:50:38.699Z,99725.52
2022-08-08T14:51:17.893Z,99728.38
2022-08-08T14:51:52.024Z,99727.38
2022-08-08T14:52:24.646Z,99726.25
2022-08-08T14:52:58.486Z,99725.83
2022-08-08T14:53:35.745Z,99723.92
2022-08-08T14:54:10.536Z,99723.96
2022-08-08T14:54:48.194Z,99722.17
2022-08-08T14:55:35.407Z,99726.08
2022-08-08T14:56:14.427Z,99722.61
2022-08-08T14:56:46.486Z,99720.89
2022-08-08T14:57:20.646Z,99721.66
2022-08-08T14:58:16.094Z,99722.85
2022-08-08T14:58:49.092Z,99723.05
2022-08-08T14:59:39.822Z,99723.34
2022-08-08T15:00:14.926Z,99720.76
2022-08-08T15:00:50.119Z,99719.58
2022-08-08T15:01:37.534Z,99716.05
2022-08-08T15:02:15.263Z,99717.41
2022-08-08T15:02:58.580Z,99720.61
2022-08-08T15:03:35.267Z,99719.13
2022-08-08T15:04:16.859Z,99721.89
2022-08-08T15:04:50.449Z,99721.39
2022-08-08T15:05:23.854Z,99722.76
2022-08-08T15:06:16.641Z,99723.05
2022-08-08T15:06:48.677Z,99725.98
2022-08-08T15:07:36.887Z,99726.68
2022-08-08T15:08:22.111Z,99731.49
2022-08-08T15:09:04.306Z,99729.81
2022-08-08T15:09:36.659Z,99733.01
2022-08-08T15:10:15.887Z,99728.09
2022-08-08T15:10:47.993Z,99733.61
2022-08-08T15:11:21.475Z,99733.23
2022-08-08T15:11:53.819Z,99733.67
2022-08-08T15:12:27.613Z,99735.60
2022-08-08T15:13:00.095Z,99736.02
2022-08-08T15:13:39.886Z,99736.94
2022-08-08T15:14:14.717Z,99736.32
2022-08-08T15:14:46.826Z,99736.23
2022-08-08T15:16:02.653Z,99739.45
2022-08-08T15:16:14.603Z,99737.23
2022-08-08T15:16:47.062Z,99738.02
2022-08-08T15:17:19.516Z,99738.37
2022-08-08T15:17:51.918Z,99739.61
2022-08-08T15:18:23.943Z,99740.21
2022-08-08T15:19:03.013Z,99738.45
2022-08-08T15:19:35.051Z,99737.58
2022-08-08T15:20:14.017Z,99738.23
2022-08-08T15:20:46.403Z,99740.90
2022-08-08T15:21:21.672Z,99738.98
2022-08-08T15:21:53.716Z,99739.02
2022-08-08T15:22:25.906Z,99739.27
2022-08-08T15:22:59.076Z,99739.39
2022-08-08T15:23:35.909Z,99738.48
2022-08-08T15:24:13.886Z,99739.93
2022-08-08T15:24:50.045Z,99738.80
2022-08-08T15:25:29.454Z,99739.58
2022-08-08T15:26:09.629Z,99738.52
2022-08-08T15:26:52.501Z,99739.63
2022-08-08T15:28:05.185Z,99739.02
2022-08-08T15:28:34.119Z,99738.98
2022-08-08T15:29:07.387Z,99738.68
2022-08-08T15:29:39.437Z,99739.64
2022-08-08T15:30:14.445Z,99742.30
2022-08-08T15:30:48.819Z,99742.89
2022-08-08T15:31:55.652Z,99738.50
2022-08-08T15:32:19.696Z,99732.69
2022-08-08T15:32:53.251Z,99735.89
2022-08-08T15:33:38.370Z,99734.66
2022-08-08T15:34:31.663Z,99733.75
2022-08-08T15:35:05.823Z,99732.59
2022-08-08T15:35:39.897Z,99733.10
2022-08-08T15:36:12.723Z,99734.33
2022-08-08T15:36:50.859Z,99732.04
2022-08-08T15:37:23.749Z,99731.98
2022-08-08T15:37:57.130Z,99730.98
2022-08-08T15:38:29.116Z,99728.83
2022-08-08T15:39:01.186Z,99729.84
2022-08-08T15:39:37.931Z,99731.94
2022-08-08T15:40:15.407Z,99729.23
2022-08-08T15:40:47.921Z,99729.31
2022-08-08T15:41:24.761Z,99725.24
2022-08-08T15:42:01.727Z,99728.95
2022-08-08T15:42:33.718Z,99726.90
2022-08-08T15:43:34.917Z,99727.83
2022-08-08T15:44:00.670Z,99727.76
2022-08-08T15:44:33.829Z,99727.92
2022-08-08T15:45:08.042Z,99728.98
2022-08-08T15:45:40.183Z,99729.46
2022-08-08T15:46:15.586Z,99728.13
2022-08-08T15:46:50.772Z,99728.40
2022-08-08T15:47:23.581Z,99726.95
2022-08-08T15:48:04.308Z,99725.62
2022-08-08T15:48:47.468Z,99723.60
2022-08-08T15:49:20.601Z,99724.88
2022-08-08T15:49:53.090Z,99721.14
2022-08-08T15:50:45.229Z,99721.73
2022-08-08T15:51:18.195Z,99722.17
2022-08-08T15:51:54.807Z,99722.83
2022-08-08T15:52:26.902Z,99725.41
2022-08-08T15:52:59.128Z,99722.04
2022-08-08T15:53:40.374Z,99723.88
2022-08-08T15:54:38.821Z,99724.41
2022-08-08T15:55:12.942Z,99724.94
2022-08-08T15:55:45.229Z,99723.64
2022-08-08T15:56:22.560Z,99723.71
2022-08-08T15:56:55.804Z,99725.31
2022-08-08T15:57:27.766Z,99726.50
2022-08-08T15:58:07.719Z,99724.45
2022-08-08T15:58:45.969Z,99725.48
2022-08-08T15:59:20.749Z,99724.64
2022-08-08T16:00:27.099Z,99726.27
2022-08-08T16:01:00.294Z,99725.74
2022-08-08T16:01:41.031Z,99724.02
2022-08-08T16:02:31.319Z,99723.13
2022-08-08T16:03:04.183Z,99726.06
2022-08-08T16:03:36.063Z,99725.48
2022-08-08T16:04:08.034Z,99724.36
2022-08-08T16:04:46.718Z,99727.19
2022-08-08T16:05:35.870Z,99724.34
2022-08-08T16:06:28.475Z,99727.59
2022-08-08T16:07:01.368Z,99725.97
2022-08-08T16:07:39.574Z,99726.45
2022-08-08T16:08:24.894Z,99724.31
2022-08-08T16:13:00.358Z,99724.73
2022-08-08T16:13:05.466Z,99724.04
2022-08-08T16:13:09.178Z,99725.36
2022-08-08T16:13:15.436Z,99727.34
2022-08-08T16:13:27.359Z,99724.66
2022-08-08T16:13:33.538Z,99726.20
2022-08-08T16:14:15.797Z,99729.02
2022-08-08T16:14:52.822Z,99730.45
2022-08-08T16:15:26.744Z,99730.23
2022-08-08T16:16:09.480Z,99729.85
2022-08-08T16:16:50.530Z,99730.69
2022-08-08T16:17:57.554Z,99733.52
2022-08-08T16:18:14.625Z,99735.11
2022-08-08T16:18:57.067Z,99736.05
2022-08-08T16:19:30.536Z,99737.39
2022-08-08T16:20:22.585Z,99736.15
2022-08-08T16:21:00.557Z,99738.58
2022-08-08T16:21:34.288Z,99739.15
2022-08-08T16:22:06.536Z,99739.94
2022-08-08T16:22:39.070Z,99741.05
2022-08-08T16:23:13.841Z,99740.58
2022-08-08T16:23:48.118Z,99743.98
2022-08-08T16:24:20.118Z,99744.45
2022-08-08T16:24:53.942Z,99744.70
2022-08-08T16:25:45.785Z,99745.34
2022-08-08T16:26:22.906Z,99743.08
2022-08-08T16:27:05.577Z,99746.02
2022-08-08T16:27:58.225Z,99743.64
2022-08-08T16:28:35.215Z,99745.23
2022-08-08T16:29:15.663Z,99744.46
2022-08-08T16:30:13.406Z,99745.83
2022-08-08T16:30:40.374Z,99746.39
2022-08-08T16:31:12.659Z,99746.15
2022-08-08T16:31:49.878Z,99749.69
2022-08-08T16:32:31.993Z,99747.95
2022-08-08T16:33:04.244Z,99748.52
2022-08-08T16:33:40.061Z,99752.69
2022-08-08T16:34:14.133Z,99755.08
2022-08-08T16:34:45.991Z,99752.02
2022-08-08T16:35:18.957Z,99751.96
2022-08-08T16:35:55.243Z,99751.86
2022-08-08T16:36:34.095Z,99753.30
2022-08-08T16:37:06.906Z,99754.05
2022-08-08T16:37:42.943Z,99753.45
2022-08-08T16:38:31.373Z,99754.31
2022-08-08T16:39:09.880Z,99759.21
2022-08-08T16:40:03.034Z,99756.96
2022-08-08T16:40:35.668Z,99757.00
2022-08-08T16:41:08.847Z,99756.61
2022-08-08T16:41:43.027Z,99756.64
2022-08-08T16:42:22.891Z,99754.77
2022-08-08T16:42:57.738Z,99756.14
2022-08-08T16:43:29.760Z,99756.80
2022-08-08T16:44:27.926Z,99758.83
2022-08-08T16:45:11.161Z,99757.58
2022-08-08T16:46:37.543Z,99755.15
2022-08-08T16:46:56.312Z,99756.60
2022-08-08T16:47:40.431Z,99758.14
2022-08-08T16:48:14.622Z,99758.89
2022-08-08T16:48:48.392Z,99758.73
2022-08-08T16:49:22.666Z,99761.82
2022-08-08T16:50:14.081Z,99764.32
2022-08-08T16:50:46.556Z,99762.35
2022-08-08T16:55:01.764Z,99764.52
2022-08-08T16:55:03.424Z,99762.86
2022-08-08T16:55:03.836Z,99769.73
2022-08-08T16:55:05.577Z,99768.78
2022-08-08T16:55:06.673Z,99768.31
2022-08-08T16:55:56.019Z,99773.50
2022-08-08T16:56:29.890Z,99770.29
2022-08-08T16:57:22.736Z,99776.20
2022-08-08T16:58:14.563Z,99775.61
2022-08-08T16:58:46.445Z,99778.71
2022-08-08T16:59:21.496Z,99780.45
2022-08-08T16:59:54.211Z,99782.59
2022-08-08T17:00:30.162Z,99784.20
2022-08-08T17:01:05.813Z,99783.66
2022-08-08T17:01:39.499Z,99786.38
2022-08-08T17:02:32.896Z,99788.45
2022-08-08T17:03:09.940Z,99786.77
2022-08-08T17:03:59.186Z,99787.77
2022-08-08T17:04:33.588Z,99786.50
2022-08-08T17:05:07.790Z,99787.32
2022-08-08T17:05:45.151Z,99786.37
2022-08-08T17:06:35.680Z,99787.52
2022-08-08T17:07:09.956Z,99786.12
2022-08-08T17:07:42.234Z,99789.57
2022-08-08T17:08:14.105Z,99790.91
2022-08-08T17:08:46.111Z,99791.20
2022-08-08T17:09:23.872Z,99792.02
2022-08-08T17:10:08.964Z,99794.96
2022-08-08T17:10:53.540Z,99794.28
2022-08-08T17:11:48.049Z,99796.35
2022-08-08T17:12:21.693Z,99797.73
2022-08-08T17:13:00.843Z,99795.98
2022-08-08T17:13:50.304Z,99799.02
2022-08-08T17:14:34.098Z,99802.51
2022-08-08T17:15:20.124Z,99805.75
2022-08-08T17:15:53.491Z,99801.59
2022-08-08T17:16:25.887Z,99802.21
2022-08-08T17:17:05.483Z,99805.75
2022-08-08T17:18:02.293Z,99806.95
2022-08-08T17:18:36.100Z,99808.97
2022-08-08T17:19:10.791Z,99806.71
2022-08-08T17:19:46.210Z,99809.30
2022-08-08T17:20:22.015Z,99809.27
2022-08-08T17:20:57.144Z,99807.40
2022-08-08T17:21:41.439Z,99810.80
2022-08-08T17:22:13.602Z,99809.55
2022-08-08T17:22:45.517Z,99809.08
2022-08-08T17:23:58.242Z,99810.66
2022-08-08T17:24:32.292Z,99810.09
2022-08-08T17:25:04.779Z,99813.60
2022-08-08T17:25:51.959Z,99807.80
2022-08-08T17:26:28.984Z,99812.60
2022-08-08T17:27:02.706Z,99808.92
2022-08-08T17:27:46.221Z,99809.92
2022-08-08T17:28:19.348Z,99810.99
2022-08-08T17:29:07.367Z,99810.83
2022-08-08T17:29:43.755Z,99810.18
2022-08-08T17:30:29.235Z,99809.41
2022-08-08T17:31:44.064Z,99810.31
2022-08-08T17:31:58.166Z,99813.66
2022-08-08T17:32:34.299Z,99810.31
2022-08-08T17:34:35.026Z,99810.79
2022-08-08T17:34:37.385Z,99811.64
2022-08-08T17:35:53.664Z,99810.54
2022-08-08T17:36:12.547Z,99813.66
2022-08-08T17:37:00.463Z,99813.80
2022-08-08T17:37:35.931Z,99815.88
2022-08-08T17:38:07.891Z,99812.14
2022-08-08T17:38:42.866Z,99814.27
2022-08-08T17:39:45.732Z,99814.11
2022-08-08T17:40:15.093Z,99816.61
2022-08-08T17:40:48.951Z,99814.74
2022-08-08T17:41:23.033Z,99816.73
2022-08-08T17:42:03.332Z,99816.79
2022-08-08T17:42:36.818Z,99813.09
2022-08-08T17:43:08.722Z,99815.23
2022-08-08T17:44:01.318Z,99815.12
2022-08-08T17:44:34.187Z,99820.25
2022-08-08T17:45:22.181Z,99819.98
2022-08-08T17:45:55.774Z,99817.04
2022-08-08T17:46:44.167Z,99818.54
2022-08-08T17:47:24.049Z,99819.17
2022-08-08T17:47:57.021Z,99821.00
2022-08-08T17:48:31.973Z,99819.39
2022-08-08T17:49:05.776Z,99824.46
2022-08-08T17:49:43.437Z,99824.77
2022-08-08T17:50:16.518Z,99821.95
2022-08-08T17:50:48.424Z,99826.44
2022-08-08T17:51:20.384Z,99824.73
2022-08-08T17:51:53.582Z,99827.55
2022-08-08T17:52:27.491Z,99826.73
2022-08-08T17:53:00.061Z,99823.45
2022-08-08T17:53:43.327Z,99828.41
2022-08-08T17:54:22.277Z,99828.54
2022-08-08T17:54:59.039Z,99829.80
2022-08-08T17:56:04.814Z,99827.73
2022-08-08T17:56:22.855Z,99834.98
2022-08-08T17:56:58.521Z,99834.47
2022-08-08T17:57:35.461Z,99834.30
2022-08-08T17:58:08.065Z,99836.40
2022-08-08T17:58:39.961Z,99838.70
2022-08-08T17:59:12.660Z,99838.36
2022-08-08T17:59:45.846Z,99839.48
2022-08-08T18:00:19.712Z,99842.36
2022-08-08T18:00:58.061Z,99844.38
2022-08-08T18:01:51.088Z,99843.11
2022-08-08T18:02:28.760Z,99842.76
2022-08-08T18:03:08.452Z,99843.34
2022-08-08T18:03:41.878Z,99843.40
2022-08-08T18:04:29.051Z,99843.29
2022-08-08T18:05:04.943Z,99845.44
2022-08-08T18:05:49.655Z,99843.84
2022-08-08T18:06:30.679Z,99844.79
2022-08-08T18:07:04.534Z,99847.52
2022-08-08T18:08:04.064Z,99845.89
2022-08-08T18:08:48.558Z,99845.90
2022-08-08T18:09:31.513Z,99847.12
2022-08-08T18:10:11.043Z,99848.23
2022-08-08T18:10:43.043Z,99849.49
2022-08-08T18:11:16.979Z,99849.08
2022-08-08T18:11:51.188Z,99850.95
2022-08-08T18:12:23.279Z,99847.99
2022-08-08T18:12:55.755Z,99848.21
2022-08-08T18:13:27.544Z,99851.16
2022-08-08T18:14:18.836Z,99851.41
2022-08-08T18:14:53.703Z,99853.39
2022-08-08T18:15:26.186Z,99853.50
2022-08-08T18:16:04.648Z,99851.69
2022-08-08T18:16:39.019Z,99854.28
2022-08-08T18:17:17.199Z,99853.38
2022-08-08T18:18:09.775Z,99855.88
2022-08-08T18:18:45.498Z,99858.59
2022-08-08T18:19:24.836Z,99858.03
2022-08-08T18:20:36.620Z,99858.08
2022-08-08T18:20:59.352Z,99858.77
2022-08-08T18:21:59.735Z,99860.95
2022-08-08T18:22:37.468Z,99861.75
2022-08-08T18:23:16.624Z,99863.13
2022-08-08T18:23:55.670Z,99868.35
2022-08-08T18:24:30.167Z,99867.45
2022-08-08T18:25:02.564Z,99868.02
2022-08-08T18:25:37.469Z,99867.54
2022-08-08T18:26:09.791Z,99870.15
2022-08-08T18:26:41.893Z,99868.60
2022-08-08T18:27:18.755Z,99868.71
2022-08-08T18:27:50.632Z,99870.85
2022-08-08T18:28:25.403Z,99869.20
2022-08-08T18:28:57.965Z,99871.62
2022-08-08T18:29:34.747Z,99868.63
2022-08-08T18:30:08.020Z,99871.50
2022-08-08T18:30:40.933Z,99870.65
2022-08-08T18:31:13.145Z,99871.71
2022-08-08T18:31:45.470Z,99870.60
2022-08-08T18:32:20.431Z,99873.02
2022-08-08T18:32:52.280Z,99872.48
2022-08-08T18:34:12.478Z,99870.88
2022-08-08T18:34:27.098Z,99875.31
2022-08-08T18:34:59.673Z,99874.77
2022-08-08T18:35:41.483Z,99871.59
2022-08-08T18:36:18.983Z,99873.52
2022-08-08T18:36:55.592Z,99873.15
2022-08-08T18:37:48.089Z,99874.63
2022-08-08T18:38:19.381Z,99874.70
2022-08-08T18:38:51.396Z,99875.00
2022-08-08T18:39:28.552Z,99878.89
2022-08-08T18:40:01.349Z,99875.65
2022-08-08T18:40:35.492Z,99879.51
2022-08-08T18:41:07.597Z,99876.92
2022-08-08T18:41:51.636Z,99879.76
2022-08-08T18:42:29.655Z,99878.91
2022-08-08T18:43:02.348Z,99875.10
2022-08-08T18:43:48.253Z,99877.27
2022-08-08T18:44:20.421Z,99876.27
2022-08-08T18:44:55.445Z,99876.80
2022-08-08T18:45:45.137Z,99878.49
2022-08-08T18:46:54.321Z,99871.65
2022-08-08T18:47:13.750Z,99876.55
2022-08-08T18:47:48.687Z,99876.70
2022-08-08T18:48:20.965Z,99873.55
2022-08-08T18:48:58.253Z,99875.30
2022-08-08T18:49:32.495Z,99876.05
2022-08-08T18:50:13.205Z,99874.61
2022-08-08T18:50:58.028Z,99874.41
2022-08-08T18:51:53.713Z,99874.29
2022-08-08T18:52:23.626Z,99874.19
2022-08-08T18:52:57.398Z,99873.00
2022-08-08T18:54:00.576Z,99873.64
2022-08-08T18:54:22.402Z,99875.97
2022-08-08T18:55:09.620Z,99871.88
2022-08-08T18:55:44.045Z,99871.03
2022-08-08T18:56:32.143Z,99871.78
2022-08-08T18:57:04.311Z,99870.70
2022-08-08T18:57:44.700Z,99870.67
2022-08-08T18:58:17.764Z,99873.05
2022-08-08T18:58:53.550Z,99871.91
2022-08-08T18:59:34.365Z,99871.02
2022-08-08T19:00:15.408Z,99870.52
2022-08-08T19:00:50.203Z,99874.55
2022-08-08T19:02:25.238Z,99875.45
2022-08-08T19:02:28.313Z,99876.13
2022-08-08T19:03:06.270Z,99877.61
2022-08-08T19:04:05.274Z,99880.17
2022-08-08T19:04:32.214Z,99879.45
2022-08-08T19:05:08.204Z,99876.19
2022-08-08T19:05:45.105Z,99879.88
2022-08-08T19:06:18.729Z,99874.06
2022-08-08T19:06:51.926Z,99878.75
2022-08-08T19:07:29.733Z,99874.59
2022-08-08T19:08:25.570Z,99874.39
2022-08-08T19:09:01.755Z,99879.87
2022-08-08T19:09:48.931Z,99879.32
2022-08-08T19:10:41.179Z,99880.89
2022-08-08T19:11:13.549Z,99880.08
2022-08-08T19:11:55.622Z,99882.21
2022-08-08T19:12:28.933Z,99884.34
2022-08-08T19:13:00.983Z,99881.42
2022-08-08T19:13:52.773Z,99880.67
2022-08-08T19:14:28.167Z,99883.77
2022-08-08T19:15:00.684Z,99883.44
2022-08-08T19:15:34.339Z,99880.02
2022-08-08T19:16:06.675Z,99882.81
2022-08-08T19:16:41.253Z,99881.13
2022-08-08T19:17:28.742Z,99884.33
2022-08-08T19:18:33.213Z,99885.02
2022-08-08T19:19:02.242Z,99886.15
2022-08-08T19:19:37.369Z,99888.30
2022-08-08T19:20:16.994Z,99888.23
2022-08-08T19:20:51.401Z,99890.48
2022-08-08T19:21:31.020Z,99890.33
2022-08-08T19:22:05.696Z,99891.67
2022-08-08T19:22:38.203Z,99890.13
2022-08-08T19:23:10.601Z,99895.25
2022-08-08T19:23:42.539Z,99894.75
2022-08-08T19:24:42.004Z,99894.27
2022-08-08T19:26:02.295Z,99892.38
2022-08-08T19:26:19.672Z,99892.71
2022-08-08T19:26:53.127Z,99894.03
2022-08-08T19:27:57.137Z,99894.36
2022-08-08T19:28:20.277Z,99893.05
2022-08-08T19:28:53.561Z,99894.23
2022-08-08T19:29:25.761Z,99893.25
2022-08-08T19:29:57.699Z,99891.16
2022-08-08T19:30:29.710Z,99890.17
2022-08-08T19:31:09.013Z,99890.88
2022-08-08T19:31:41.969Z,99891.33
2022-08-08T19:32:22.886Z,99888.13
2022-08-08T19:32:58.132Z,99893.38
2022-08-08T19:33:51.669Z,99891.77
2022-08-08T19:34:36.186Z,99890.64
2022-08-08T19:35:13.450Z,99889.68
2022-08-08T19:36:08.644Z,99892.59
2022-08-08T19:36:37.775Z,99891.90
2022-08-08T19:37:16.006Z,99891.08
2022-08-08T19:37:57.324Z,99891.23
2022-08-08T19:38:30.031Z,99887.51
2022-08-08T19:39:01.974Z,99889.31
2022-08-08T19:39:35.737Z,99890.02
2022-08-08T19:40:16.258Z,99888.24
2022-08-08T19:40:54.362Z,99886.93
2022-08-08T19:41:29.496Z,99886.21
2022-08-08T19:42:01.696Z,99885.35
2022-08-08T19:42:33.679Z,99884.45
2022-08-08T19:43:11.608Z,99883.13
2022-08-08T19:43:56.224Z,99881.41
2022-08-08T19:44:42.643Z,99884.60
2022-08-08T19:45:58.919Z,99886.17
2022-08-08T19:46:14.032Z,99885.60
2022-08-08T19:46:46.154Z,99882.91
2022-08-08T19:47:24.773Z,99885.20
2022-08-08T19:47:57.300Z,99883.35
2022-08-08T19:48:30.996Z,99881.76
2022-08-08T19:49:03.543Z,99879.83
2022-08-08T19:49:37.722Z,99879.95
2022-08-08T19:50:14.837Z,99881.76
2022-08-08T19:50:47.031Z,99879.18
2022-08-08T19:51:25.023Z,99881.57
2022-08-08T19:52:07.244Z,99885.18
2022-08-08T19:52:54.390Z,99881.82
2022-08-08T19:53:53.213Z,99885.14
2022-08-08T19:54:19.492Z,99886.10
2022-08-08T19:54:56.100Z,99885.17
2022-08-08T19:55:34.072Z,99886.73
2022-08-08T19:56:08.527Z,99882.02
2022-08-08T19:56:49.001Z,99883.67
2022-08-08T19:57:21.481Z,99884.45
2022-08-08T19:57:57.528Z,99882.02
2022-08-08T19:58:30.703Z,99883.28
2022-08-08T19:59:03.298Z,99881.89
2022-08-08T19:59:35.810Z,99879.55
2022-08-08T20:00:30.421Z,99876.65
2022-08-08T20:01:04.645Z,99879.08
2022-08-08T20:02:01.042Z,99879.66
2022-08-08T20:02:32.921Z,99876.90
2022-08-08T20:03:14.742Z,99878.23
2022-08-08T20:04:01.437Z,99877.05
2022-08-08T20:04:35.899Z,99879.61
2022-08-08T20:05:12.059Z,99878.64
2022-08-08T20:06:15.203Z,99878.52
2022-08-08T20:06:36.500Z,99876.02
2022-08-08T20:08:30.227Z,99878.23
2022-08-08T20:08:38.766Z,99877.20
2022-08-08T20:08:56.580Z,99875.45
2022-08-08T20:09:29.946Z,99875.95
2022-08-08T20:10:06.995Z,99878.26
2022-08-08T20:10:39.048Z,99873.29
2022-08-08T20:11:11.356Z,99873.41
2022-08-08T20:11:43.368Z,99874.72
2022-08-08T20:12:15.817Z,99876.38
2022-08-08T20:14:10.241Z,99874.19
2022-08-08T20:14:32.241Z,99876.95
2022-08-08T20:14:53.347Z,99876.35
2022-08-08T20:15:25.472Z,99877.71
2022-08-08T20:16:18.788Z,99878.70
2022-08-08T20:16:53.092Z,99878.09
2022-08-08T20:17:36.505Z,99878.95
2022-08-08T20:18:15.724Z,99878.10
2022-08-08T20:18:53.189Z,99880.59
2022-08-08T20:19:25.887Z,99874.41
2022-08-08T20:20:09.701Z,99874.73
2022-08-08T20:20:42.637Z,99880.39
2022-08-08T20:21:16.315Z,99876.91
2022-08-08T20:21:57.890Z,99876.45
2022-08-08T20:22:33.068Z,99875.71
2022-08-08T20:23:05.491Z,99875.11
2022-08-08T20:23:44.679Z,99876.12
2022-08-08T20:24:18.568Z,99874.69
2022-08-08T20:24:51.998Z,99871.38
2022-08-08T20:25:29.895Z,99873.83
2022-08-08T20:26:03.861Z,99873.67
2022-08-08T20:26:38.494Z,99876.13
2022-08-08T20:27:43.965Z,99872.77
2022-08-08T20:28:18.811Z,99874.95
2022-08-08T20:28:52.990Z,99874.58
2022-08-08T20:29:25.570Z,99877.44
2022-08-08T20:30:53.239Z,99879.48
2022-08-08T20:31:10.573Z,99876.26
2022-08-08T20:32:07.543Z,99877.86
2022-08-08T20:32:34.951Z,99877.28
2022-08-08T20:33:19.863Z,99876.38
2022-08-08T20:34:27.284Z,99878.47
2022-08-08T20:34:38.267Z,99878.26
2022-08-08T20:35:23.036Z,99880.84
2022-08-08T20:36:07.703Z,99880.55
2022-08-08T20:36:41.067Z,99880.72
2022-08-08T20:37:15.269Z,99878.87
2022-08-08T20:37:53.554Z,99876.36
2022-08-08T20:38:32.218Z,99879.29
2022-08-08T20:39:06.478Z,99882.43
2022-08-08T20:39:51.136Z,99880.14
2022-08-08T20:40:39.026Z,99881.98
2022-08-08T20:41:17.790Z,99884.13
2022-08-08T20:41:52.471Z,99883.08
2022-08-08T20:42:29.006Z,99882.27
2022-08-08T20:43:01.779Z,99879.46
2022-08-08T20:43:49.760Z,99879.10
2022-08-08T20:44:25.229Z,99878.66
2022-08-08T20:44:58.299Z,99881.11
2022-08-08T20:45:55.022Z,99880.20
2022-08-08T20:46:25.441Z,99882.02
2022-08-08T20:46:58.323Z,99879.55
2022-08-08T20:47:35.970Z,99878.70
2022-08-08T20:48:09.087Z,99881.11
2022-08-08T20:48:41.089Z,99883.30
2022-08-08T20:49:13.125Z,99882.74
2022-08-08T20:49:46.679Z,99880.95
2022-08-08T20:50:19.413Z,99879.71
2022-08-08T20:50:56.894Z,99879.02
2022-08-08T20:51:32.328Z,99882.76